createdAt,value
2022-12-16T00:01:14.147Z,9.30
2022-12-16T00:03:46.263Z,8.23
2022-12-16T00:06:16.598Z,13.30
2022-12-16T00:08:46.101Z,9.03
2022-12-16T00:11:15.361Z,10.60
2022-12-16T00:13:45.527Z,10.47
2022-12-16T00:16:15.949Z,9.20
2022-12-16T00:18:53.314Z,8.77
2022-12-16T00:21:29.456Z,9.40
2022-12-16T00:23:59.302Z,10.93
2022-12-16T00:26:30.598Z,10.30
2022-12-16T00:29:00.122Z,6.67
2022-12-16T00:31:39.519Z,8.80
2022-12-16T00:34:28.914Z,9.37
2022-12-16T00:36:59.176Z,12.67
2022-12-16T00:39:37.887Z,8.43
2022-12-16T00:42:08.168Z,9.80
2022-12-16T00:44:37.547Z,8.70
2022-12-16T00:47:09.930Z,11.13
2022-12-16T00:49:45.694Z,12.23
2022-12-16T00:52:15.799Z,12.80
2022-12-16T00:54:48.989Z,14.30
2022-12-16T00:57:18.332Z,6.83
2022-12-16T00:59:47.887Z,11.27
2022-12-16T01:02:18.062Z,10.67
2022-12-16T01:04:51.324Z,9.87
2022-12-16T01:07:21.839Z,9.87
2022-12-16T01:10:06.282Z,11.70
2022-12-16T01:12:37.747Z,12.23
2022-12-16T01:15:15.181Z,11.30
2022-12-16T01:17:45.281Z,9.20
2022-12-16T01:20:17.213Z,12.13
2022-12-16T01:22:47.184Z,8.90
2022-12-16T01:25:19.477Z,8.87
2022-12-16T01:27:50.779Z,8.00
2022-12-16T01:30:21.175Z,10.63
2022-12-16T01:32:51.146Z,8.20
2022-12-16T01:38:23.671Z,9.90
2022-12-16T01:40:55.046Z,11.87
2022-12-16T01:43:26.568Z,8.43
2022-12-16T01:45:58.542Z,9.10
2022-12-16T01:48:35.656Z,9.23
2022-12-16T01:51:23.084Z,9.67
2022-12-16T01:53:55.877Z,10.13
2022-12-16T01:56:26.020Z,11.90
2022-12-16T01:58:58.274Z,11.23
2022-12-16T02:01:28.333Z,12.17
2022-12-16T02:04:02.035Z,9.17
2022-12-16T02:06:31.637Z,8.10
2022-12-16T02:09:03.140Z,12.87
2022-12-16T02:11:42.217Z,11.00
2022-12-16T02:14:23.676Z,9.10
2022-12-16T02:16:56.188Z,10.67
2022-12-16T02:19:41.265Z,10.47
2022-12-16T02:22:19.185Z,8.10
2022-12-16T02:25:04.843Z,8.97
2022-12-16T02:27:56.010Z,11.80
2022-12-16T02:30:40.391Z,10.17
2022-12-16T02:33:17.788Z,7.53
2022-12-16T02:35:52.584Z,10.30
2022-12-16T02:38:26.836Z,10.20
2022-12-16T02:40:59.783Z,12.20
2022-12-16T02:43:38.899Z,10.10
2022-12-16T02:46:09.305Z,7.27
2022-12-16T02:48:40.325Z,8.60
2022-12-16T02:51:11.822Z,10.23
2022-12-16T02:53:42.339Z,11.40
2022-12-16T02:56:20.409Z,8.53
2022-12-16T02:58:53.804Z,9.63
2022-12-16T03:01:25.259Z,8.53
2022-12-16T03:03:59.824Z,8.97
2022-12-16T03:06:31.181Z,7.07
2022-12-16T03:09:02.045Z,7.23
2022-12-16T03:11:32.463Z,10.83
2022-12-16T03:14:04.480Z,9.77
2022-12-16T03:16:35.078Z,8.63
2022-12-16T03:19:08.469Z,10.10
2022-12-16T03:21:40.513Z,10.63
2022-12-16T03:24:17.442Z,12.00
2022-12-16T03:26:49.981Z,11.33
2022-12-16T03:29:24.941Z,8.00
2022-12-16T03:31:58.803Z,9.93
2022-12-16T03:34:33.292Z,10.83
2022-12-16T03:37:04.422Z,8.30
2022-12-16T03:39:35.630Z,7.07
2022-12-16T03:42:05.956Z,10.50
2022-12-16T03:44:37.478Z,8.53
2022-12-16T03:47:07.389Z,11.07
2022-12-16T03:49:39.048Z,7.87
2022-12-16T03:52:08.670Z,11.00
2022-12-16T03:54:38.846Z,10.83
2022-12-16T03:57:14.788Z,11.03
2022-12-16T03:59:45.625Z,12.10
2022-12-16T04:02:15.601Z,10.73
2022-12-16T04:04:46.460Z,11.63
2022-12-16T04:07:25.906Z,12.07
2022-12-16T04:09:57.737Z,12.07
2022-12-16T04:12:44.543Z,13.00
2022-12-16T04:15:33.695Z,14.57
2022-12-16T04:18:20.550Z,11.20
2022-12-16T04:21:11.070Z,14.90
2022-12-16T04:24:00.928Z,12.17
2022-12-16T04:26:55.027Z,11.73
2022-12-16T04:29:24.258Z,14.20
2022-12-16T04:31:53.929Z,12.93
2022-12-16T04:34:29.599Z,12.60
2022-12-16T04:37:19.158Z,13.70
2022-12-16T04:40:05.820Z,9.90
2022-12-16T04:42:55.472Z,10.67
2022-12-16T04:45:42.036Z,12.40
2022-12-16T04:48:28.501Z,8.90
2022-12-16T04:51:14.966Z,11.23
2022-12-16T04:54:03.858Z,12.77
2022-12-16T04:56:50.467Z,12.10
2022-12-16T04:59:36.752Z,13.00
2022-12-16T05:02:24.034Z,10.37
2022-12-16T05:05:11.893Z,11.30
2022-12-16T05:07:58.015Z,12.63
2022-12-16T05:10:46.691Z,13.83
2022-12-16T05:13:33.602Z,12.13
2022-12-16T05:16:20.927Z,15.17
2022-12-16T05:19:21.546Z,11.40
2022-12-16T05:22:15.567Z,9.90
2022-12-16T05:25:02.027Z,8.33
2022-12-16T05:27:52.889Z,9.40
2022-12-16T05:30:39.249Z,10.87
2022-12-16T05:33:26.303Z,11.47
2022-12-16T05:36:14.179Z,11.40
2022-12-16T05:39:02.377Z,15.87
2022-12-16T05:41:48.680Z,9.27
2022-12-16T05:44:40.069Z,12.70
2022-12-16T05:47:26.596Z,11.97
2022-12-16T05:50:11.330Z,13.40
2022-12-16T05:52:58.788Z,12.73
2022-12-16T05:55:46.927Z,10.57
2022-12-16T05:58:33.420Z,11.80
2022-12-16T06:01:22.874Z,12.73
2022-12-16T06:04:15.584Z,9.73
2022-12-16T06:07:04.859Z,12.20
2022-12-16T06:09:49.571Z,9.87
2022-12-16T06:12:41.878Z,11.03
2022-12-16T06:15:28.699Z,18.37
2022-12-16T06:18:17.036Z,12.07
2022-12-16T06:21:03.343Z,16.33
2022-12-16T06:23:50.075Z,11.07
2022-12-16T06:26:45.160Z,10.70
2022-12-16T06:29:31.860Z,12.20
2022-12-16T06:32:19.075Z,12.83
2022-12-16T06:35:07.321Z,10.57
2022-12-16T06:37:53.360Z,14.73
2022-12-16T06:40:39.894Z,15.33
2022-12-16T06:43:39.930Z,10.00
2022-12-16T06:46:26.120Z,12.50
2022-12-16T06:49:12.453Z,12.50
2022-12-16T06:52:01.205Z,13.53
2022-12-16T06:54:47.303Z,11.37
2022-12-16T06:57:33.872Z,12.70
2022-12-16T07:00:20.121Z,11.37
2022-12-16T07:03:06.727Z,11.90
2022-12-16T07:05:53.138Z,9.90
2022-12-16T07:08:41.468Z,13.10
2022-12-16T07:11:27.858Z,12.67
2022-12-16T07:14:14.415Z,12.73
2022-12-16T07:17:00.788Z,13.77
2022-12-16T07:19:47.585Z,13.97
2022-12-16T07:22:33.951Z,10.83
2022-12-16T07:25:24.083Z,14.33
2022-12-16T07:28:15.294Z,9.77
2022-12-16T07:31:02.785Z,11.47
2022-12-16T07:33:49.191Z,12.53
2022-12-16T07:36:36.717Z,13.27
2022-12-16T07:39:23.178Z,13.03
2022-12-16T07:42:11.065Z,17.60
2022-12-16T07:44:57.492Z,15.03
2022-12-16T07:47:44.474Z,10.83
2022-12-16T07:50:45.371Z,12.53
2022-12-16T07:53:34.476Z,13.43
2022-12-16T07:56:21.295Z,12.03
2022-12-16T07:59:12.862Z,13.47
2022-12-16T08:01:59.354Z,13.37
2022-12-16T08:04:46.728Z,10.60
2022-12-16T08:07:33.105Z,15.30
2022-12-16T08:10:22.060Z,11.83
2022-12-16T08:13:08.496Z,11.73
2022-12-16T08:15:57.661Z,13.30
2022-12-16T08:18:44.031Z,15.67
2022-12-16T08:21:30.626Z,13.77
2022-12-16T08:24:27.421Z,12.57
2022-12-16T08:27:14.307Z,13.57
2022-12-16T08:30:00.807Z,11.73
2022-12-16T08:32:48.998Z,12.30
2022-12-16T08:35:35.437Z,11.63
2022-12-16T08:38:21.946Z,10.20
2022-12-16T08:41:08.101Z,15.13
2022-12-16T08:43:55.385Z,13.10
2022-12-16T08:46:41.548Z,11.73
2022-12-16T08:49:29.553Z,11.37
2022-12-16T08:52:16.021Z,11.30
2022-12-16T08:55:02.610Z,12.90
2022-12-16T08:57:49.090Z,9.77
2022-12-16T09:00:35.807Z,12.23
2022-12-16T09:03:22.607Z,9.13
2022-12-16T09:06:11.347Z,15.90
2022-12-16T09:08:57.775Z,13.23
2022-12-16T09:11:44.099Z,12.97
2022-12-16T09:14:30.212Z,10.77
2022-12-16T09:17:16.725Z,13.17
2022-12-16T09:20:11.778Z,13.53
2022-12-16T09:23:00.224Z,9.90
2022-12-16T09:25:46.636Z,14.60
2022-12-16T09:28:33.038Z,12.03
2022-12-16T09:31:19.567Z,11.67
2022-12-16T09:34:06.204Z,11.00
2022-12-16T09:36:54.688Z,14.37
2022-12-16T09:39:43.945Z,9.90
2022-12-16T09:42:38.024Z,13.07
2022-12-16T09:45:28.527Z,14.03
2022-12-16T09:48:18.842Z,13.87
2022-12-16T09:51:06.864Z,15.47
2022-12-16T09:53:55.306Z,11.40
2022-12-16T09:56:48.050Z,10.63
2022-12-16T09:59:36.943Z,16.70
2022-12-16T10:02:23.816Z,12.90
2022-12-16T10:05:07.603Z,14.97
2022-12-16T10:07:58.234Z,14.77
2022-12-16T10:10:48.824Z,14.70
2022-12-16T10:13:39.764Z,13.83
2022-12-16T10:16:29.212Z,12.43
2022-12-16T10:19:18.351Z,15.30
2022-12-16T10:22:06.387Z,12.30
2022-12-16T10:24:58.653Z,11.80
2022-12-16T10:27:49.942Z,9.40
2022-12-16T10:30:40.483Z,12.93
2022-12-16T10:45:51.660Z,10.23
2022-12-16T10:48:51.417Z,13.27
2022-12-16T10:51:45.379Z,13.20
2022-12-16T10:54:57.907Z,11.47
2022-12-16T10:57:49.422Z,14.90
2022-12-16T11:00:38.221Z,19.87
2022-12-16T11:03:47.717Z,16.97
2022-12-16T11:06:40.997Z,13.73
2022-12-16T11:09:51.112Z,12.93
2022-12-16T11:12:42.712Z,16.33
2022-12-16T11:15:42.107Z,11.67
2022-12-16T11:21:41.704Z,16.80
2022-12-16T11:24:33.590Z,11.17
2022-12-16T11:27:21.242Z,13.93
2022-12-16T11:33:15.402Z,11.63
2022-12-16T11:36:05.347Z,15.30
2022-12-16T11:42:03.584Z,21.63
2022-12-16T11:54:13.042Z,19.13
2022-12-16T13:17:28.763Z,8.07
2022-12-16T13:20:18.272Z,14.97
2022-12-16T13:23:06.176Z,14.43
2022-12-16T13:25:54.961Z,11.07
2022-12-16T13:28:46.355Z,14.60
2022-12-16T13:31:38.654Z,15.10
2022-12-16T13:34:27.322Z,6.30
2022-12-16T13:37:19.525Z,9.40
2022-12-16T13:40:21.836Z,5.83
2022-12-16T13:43:12.024Z,9.40
2022-12-16T13:46:01.491Z,7.00
2022-12-16T13:49:00.810Z,9.90
2022-12-16T13:52:06.312Z,5.20
2022-12-16T13:54:55.057Z,7.87
2022-12-16T13:57:55.567Z,8.00
2022-12-16T14:00:43.753Z,9.80
2022-12-16T14:03:33.860Z,9.93
2022-12-16T14:06:33.335Z,11.77
2022-12-16T14:09:22.983Z,12.00
2022-12-16T14:12:12.378Z,10.33
2022-12-16T14:15:01.912Z,11.87
2022-12-16T14:17:51.140Z,13.80
2022-12-16T14:20:40.803Z,9.13
2022-12-16T14:23:55.891Z,11.37
2022-12-16T14:26:42.339Z,11.30
2022-12-16T14:29:35.424Z,10.67
2022-12-16T14:32:37.170Z,9.70
2022-12-16T14:35:24.230Z,12.23
2022-12-16T14:38:10.891Z,11.80
2022-12-16T14:41:06.182Z,6.67
2022-12-16T14:43:54.565Z,15.40
2022-12-16T14:46:45.401Z,8.27
2022-12-16T14:49:46.955Z,13.73
2022-12-16T14:52:37.576Z,7.93
2022-12-16T14:55:32.959Z,10.30
2022-12-16T14:58:36.233Z,12.43
2022-12-16T15:01:32.270Z,12.13
2022-12-16T15:04:20.252Z,14.00
2022-12-16T15:07:09.313Z,11.63
2022-12-16T15:09:57.754Z,12.23
2022-12-16T15:12:58.331Z,12.87
2022-12-16T15:15:54.735Z,15.80
2022-12-16T15:19:06.863Z,14.37
2022-12-16T15:21:53.396Z,14.50
2022-12-16T15:24:41.981Z,15.53
2022-12-16T15:27:42.303Z,13.60
2022-12-16T15:30:47.010Z,10.43
2022-12-16T15:33:49.044Z,12.83
2022-12-16T15:36:54.780Z,15.20
2022-12-16T15:39:42.306Z,8.63
2022-12-16T15:42:40.342Z,13.07
2022-12-16T15:45:35.797Z,9.27
2022-12-16T15:48:28.007Z,9.57
2022-12-16T15:51:15.188Z,12.70
2022-12-16T15:54:08.874Z,14.90
2022-12-16T15:57:10.879Z,10.23
2022-12-16T15:59:59.044Z,12.47
2022-12-16T16:02:46.671Z,9.00
2022-12-16T16:05:36.067Z,15.87
2022-12-16T16:08:23.139Z,13.30
2022-12-16T16:11:13.161Z,10.17
2022-12-16T16:14:06.192Z,12.20
2022-12-16T16:16:57.531Z,10.20
2022-12-16T16:19:48.099Z,11.70
2022-12-16T16:22:36.098Z,11.13
2022-12-16T16:25:25.295Z,13.70
2022-12-16T16:28:14.005Z,9.63
2022-12-16T16:31:01.667Z,12.50
2022-12-16T16:33:50.266Z,12.10
2022-12-16T16:36:37.560Z,11.80
2022-12-16T16:39:23.774Z,19.90
2022-12-16T16:42:10.659Z,14.47
2022-12-16T16:45:11.994Z,12.70
2022-12-16T16:48:01.204Z,12.87
2022-12-16T16:50:49.164Z,11.90
2022-12-16T16:53:36.865Z,13.97
2022-12-16T16:56:23.802Z,14.90
2022-12-16T16:59:11.937Z,13.53
2022-12-16T17:02:01.627Z,11.57
2022-12-16T17:04:50.031Z,15.37
2022-12-16T17:07:37.907Z,15.70
2022-12-16T17:10:25.821Z,16.63
2022-12-16T17:13:21.171Z,11.27
2022-12-16T17:16:08.299Z,15.27
2022-12-16T17:18:58.666Z,24.57
2022-12-16T17:21:47.737Z,12.30
2022-12-16T17:24:34.133Z,12.77
2022-12-16T17:27:27.541Z,17.07
2022-12-16T17:30:17.756Z,16.27
2022-12-16T17:33:08.731Z,14.50
2022-12-16T17:39:03.805Z,16.63
2022-12-16T17:41:50.924Z,12.10
2022-12-16T17:44:42.271Z,10.53
2022-12-16T17:47:27.743Z,14.90
2022-12-16T17:50:15.283Z,8.23
2022-12-16T17:53:02.322Z,11.13
2022-12-16T17:55:51.084Z,11.10
2022-12-16T17:58:40.624Z,12.30
2022-12-16T18:01:28.906Z,12.50
2022-12-16T18:04:16.924Z,10.83
2022-12-16T18:07:03.707Z,12.43
2022-12-16T18:09:50.411Z,10.57
2022-12-16T18:12:42.369Z,10.13
2022-12-16T18:15:32.026Z,14.20
2022-12-16T18:18:24.464Z,10.90
2022-12-16T18:21:13.511Z,17.73
2022-12-16T18:24:01.193Z,14.93
2022-12-16T18:26:49.376Z,14.50
2022-12-16T18:29:39.397Z,18.53
2022-12-16T18:32:27.408Z,10.90
2022-12-16T18:35:17.794Z,19.73
2022-12-16T18:38:05.289Z,14.50
2022-12-16T18:40:53.293Z,16.10
2022-12-16T18:43:44.593Z,12.23
2022-12-16T18:46:35.005Z,15.50
2022-12-16T18:49:22.404Z,17.07
2022-12-16T18:52:12.165Z,21.43
2022-12-16T18:54:59.502Z,15.77
2022-12-16T18:57:47.307Z,23.70
2022-12-16T19:00:35.097Z,15.37
2022-12-16T19:03:29.267Z,17.37
2022-12-16T19:06:17.186Z,17.73
2022-12-16T19:09:10.578Z,16.87
2022-12-16T19:11:57.711Z,20.90
2022-12-16T19:17:45.710Z,21.57
2022-12-16T19:23:50.649Z,17.80
2022-12-16T19:26:48.260Z,21.80
2022-12-16T19:29:38.721Z,18.20
2022-12-16T19:32:26.073Z,18.87
2022-12-16T19:35:13.612Z,21.30
2022-12-16T19:38:01.806Z,16.33
2022-12-16T19:40:53.782Z,20.87
2022-12-16T19:43:46.010Z,15.77
2022-12-16T19:49:44.341Z,22.30
2022-12-16T19:52:39.796Z,20.80
2022-12-16T19:58:43.578Z,18.93
2022-12-16T20:01:54.833Z,20.50
2022-12-16T20:04:56.975Z,17.23
2022-12-16T20:07:51.665Z,17.87
2022-12-16T20:10:42.842Z,22.73
2022-12-16T20:13:40.083Z,19.17
2022-12-16T20:16:27.410Z,17.10
2022-12-16T20:19:19.393Z,19.63
2022-12-16T20:22:11.829Z,18.60
2022-12-16T20:25:08.102Z,19.80
2022-12-16T20:27:56.511Z,19.77
2022-12-16T20:30:50.915Z,16.57
2022-12-16T20:33:45.898Z,21.10
2022-12-16T20:36:39.062Z,15.47
2022-12-16T20:39:27.041Z,14.00
2022-12-16T20:42:22.826Z,18.50
2022-12-16T20:45:09.700Z,20.93
2022-12-16T20:48:01.287Z,20.50
2022-12-16T20:57:12.740Z,18.87
2022-12-16T21:03:43.435Z,13.27
2022-12-16T21:06:39.375Z,21.80
2022-12-16T21:09:29.189Z,16.03
2022-12-16T21:12:26.580Z,17.53
2022-12-16T21:21:27.969Z,20.87
2022-12-16T21:24:20.132Z,19.53
2022-12-16T21:27:08.724Z,19.23
2022-12-16T21:29:56.685Z,20.73
2022-12-16T21:32:45.379Z,19.63
2022-12-16T21:35:34.848Z,17.13
2022-12-16T21:38:27.551Z,20.17
2022-12-16T21:41:15.736Z,15.20
2022-12-16T21:44:02.749Z,16.27
2022-12-16T21:46:49.496Z,21.37
2022-12-16T21:49:38.755Z,20.60
2022-12-16T21:52:28.607Z,18.63
2022-12-16T21:55:31.419Z,21.70
2022-12-16T21:58:23.866Z,19.70
2022-12-16T22:01:18.391Z,20.10
2022-12-16T22:04:09.684Z,24.60
2022-12-16T22:06:57.764Z,14.67
2022-12-16T22:09:45.505Z,20.00
2022-12-16T22:12:38.050Z,18.83
2022-12-16T22:15:25.535Z,17.33
2022-12-16T22:18:19.239Z,16.83
2022-12-16T22:21:15.917Z,21.77
2022-12-16T22:24:12.239Z,15.00
2022-12-16T22:27:00.623Z,19.13
2022-12-16T22:29:51.622Z,26.80
2022-12-16T22:32:41.614Z,17.33
2022-12-16T22:35:28.792Z,15.00
2022-12-16T22:38:17.577Z,15.43
2022-12-16T22:41:05.648Z,16.53
2022-12-16T22:43:55.428Z,14.40
2022-12-16T22:46:44.280Z,22.90
2022-12-16T22:49:30.684Z,15.40
2022-12-16T22:52:17.292Z,18.10
2022-12-16T22:55:03.692Z,18.20
2022-12-16T22:57:50.820Z,24.17
2022-12-16T23:00:37.873Z,17.13
2022-12-16T23:03:26.194Z,16.90
2022-12-16T23:06:12.863Z,12.93
2022-12-16T23:08:59.379Z,18.10
2022-12-16T23:11:51.183Z,14.90
2022-12-16T23:14:42.739Z,19.73
2022-12-16T23:17:30.134Z,16.17
2022-12-16T23:20:18.166Z,13.23
2022-12-16T23:23:04.706Z,15.17
2022-12-16T23:25:51.198Z,10.90
2022-12-16T23:28:43.220Z,14.87
2022-12-16T23:31:30.216Z,16.13
2022-12-16T23:34:18.948Z,15.53
2022-12-16T23:37:19.051Z,18.87
2022-12-16T23:40:07.018Z,15.10
2022-12-16T23:42:54.738Z,19.27
2022-12-16T23:45:44.069Z,19.90
2022-12-16T23:48:30.768Z,15.47
2022-12-16T23:51:20.535Z,14.00
2022-12-16T23:54:08.493Z,18.87
2022-12-16T23:56:56.421Z,15.20
2022-12-16T23:59:42.935Z,17.13
